sensor_id;sensor_type;location;lat;lon;timestamp;temperature;humidity
4374;DHT22;2201;51.100;6.814;2022-08-19T00:00:34;21.10;98.20
4374;DHT22;2201;51.100;6.814;2022-08-19T00:03:01;21.10;98.20
4374;DHT22;2201;51.100;6.814;2022-08-19T00:05:28;21.00;98.20
4374;DHT22;2201;51.100;6.814;2022-08-19T00:07:56;21.00;98.20
4374;DHT22;2201;51.100;6.814;2022-08-19T00:10:23;21.00;98.20
4374;DHT22;2201;51.100;6.814;2022-08-19T00:12:50;21.00;98.20
4374;DHT22;2201;51.100;6.814;2022-08-19T00:15:20;20.90;98.20
4374;DHT22;2201;51.100;6.814;2022-08-19T00:17:48;20.90;98.20
4374;DHT22;2201;51.100;6.814;2022-08-19T00:20:19;20.90;98.20
4374;DHT22;2201;51.100;6.814;2022-08-19T00:22:46;20.90;98.20
4374;DHT22;2201;51.100;6.814;2022-08-19T00:25:14;20.90;98.20
4374;DHT22;2201;51.100;6.814;2022-08-19T00:27:41;20.90;98.20
4374;DHT22;2201;51.100;6.814;2022-08-19T00:30:10;20.80;98.20
4374;DHT22;2201;51.100;6.814;2022-08-19T00:32:40;20.80;98.20
4374;DHT22;2201;51.100;6.814;2022-08-19T00:35:08;20.80;98.20
4374;DHT22;2201;51.100;6.814;2022-08-19T00:37:36;20.80;98.20
4374;DHT22;2201;51.100;6.814;2022-08-19T00:40:07;20.70;98.20
4374;DHT22;2201;51.100;6.814;2022-08-19T00:42:34;20.70;98.20
4374;DHT22;2201;51.100;6.814;2022-08-19T00:45:02;20.70;98.20
4374;DHT22;2201;51.100;6.814;2022-08-19T00:47:35;20.70;98.20
4374;DHT22;2201;51.100;6.814;2022-08-19T00:50:06;20.70;98.20
4374;DHT22;2201;51.100;6.814;2022-08-19T00:52:39;20.70;98.20
4374;DHT22;2201;51.100;6.814;2022-08-19T00:55:14;20.60;98.20
4374;DHT22;2201;51.100;6.814;2022-08-19T00:57:46;20.60;98.20
4374;DHT22;2201;51.100;6.814;2022-08-19T01:00:17;20.60;98.20
4374;DHT22;2201;51.100;6.814;2022-08-19T01:02:44;20.60;98.20
4374;DHT22;2201;51.100;6.814;2022-08-19T01:05:16;20.60;98.20
4374;DHT22;2201;51.100;6.814;2022-08-19T01:07:47;20.50;98.20
4374;DHT22;2201;51.100;6.814;2022-08-19T01:10:16;20.50;98.20
4374;DHT22;2201;51.100;6.814;2022-08-19T01:12:45;20.50;98.20
4374;DHT22;2201;51.100;6.814;2022-08-19T01:15:17;20.50;98.20
4374;DHT22;2201;51.100;6.814;2022-08-19T01:17:45;20.50;98.20
4374;DHT22;2201;51.100;6.814;2022-08-19T01:20:20;20.40;98.20
4374;DHT22;2201;51.100;6.814;2022-08-19T01:22:51;20.40;98.20
4374;DHT22;2201;51.100;6.814;2022-08-19T01:25:24;20.40;98.20
4374;DHT22;2201;51.100;6.814;2022-08-19T01:27:53;20.40;98.20
4374;DHT22;2201;51.100;6.814;2022-08-19T01:30:28;20.40;98.20
4374;DHT22;2201;51.100;6.814;2022-08-19T01:32:56;20.40;98.20
4374;DHT22;2201;51.100;6.814;2022-08-19T01:35:25;20.30;98.20
4374;DHT22;2201;51.100;6.814;2022-08-19T01:37:58;20.30;98.20
4374;DHT22;2201;51.100;6.814;2022-08-19T01:40:28;20.20;98.20
4374;DHT22;2201;51.100;6.814;2022-08-19T01:42:56;20.20;98.20
4374;DHT22;2201;51.100;6.814;2022-08-19T01:45:26;20.20;98.20
4374;DHT22;2201;51.100;6.814;2022-08-19T01:47:57;20.20;98.20
4374;DHT22;2201;51.100;6.814;2022-08-19T01:50:25;20.20;98.20
4374;DHT22;2201;51.100;6.814;2022-08-19T01:52:54;20.20;98.20
4374;DHT22;2201;51.100;6.814;2022-08-19T01:55:22;20.20;98.20
4374;DHT22;2201;51.100;6.814;2022-08-19T01:57:53;20.10;98.20
4374;DHT22;2201;51.100;6.814;2022-08-19T02:00:24;20.10;98.20
4374;DHT22;2201;51.100;6.814;2022-08-19T02:02:54;20.10;98.20
4374;DHT22;2201;51.100;6.814;2022-08-19T02:05:22;20.10;98.20
4374;DHT22;2201;51.100;6.814;2022-08-19T02:07:50;20.00;98.20
4374;DHT22;2201;51.100;6.814;2022-08-19T02:10:20;20.00;98.20
4374;DHT22;2201;51.100;6.814;2022-08-19T02:12:48;20.00;98.20
4374;DHT22;2201;51.100;6.814;2022-08-19T02:15:16;20.00;98.20
4374;DHT22;2201;51.100;6.814;2022-08-19T02:17:45;20.00;98.20
4374;DHT22;2201;51.100;6.814;2022-08-19T02:20:13;19.90;98.20
4374;DHT22;2201;51.100;6.814;2022-08-19T02:22:41;19.90;98.20
4374;DHT22;2201;51.100;6.814;2022-08-19T02:25:09;19.90;98.20
4374;DHT22;2201;51.100;6.814;2022-08-19T02:27:38;19.90;98.20
4374;DHT22;2201;51.100;6.814;2022-08-19T02:30:07;19.90;98.20
4374;DHT22;2201;51.100;6.814;2022-08-19T02:32:34;19.90;98.20
4374;DHT22;2201;51.100;6.814;2022-08-19T02:35:02;19.90;98.20
4374;DHT22;2201;51.100;6.814;2022-08-19T02:37:29;19.80;98.20
4374;DHT22;2201;51.100;6.814;2022-08-19T02:40:14;19.80;98.20
4374;DHT22;2201;51.100;6.814;2022-08-19T02:42:45;19.80;98.20
4374;DHT22;2201;51.100;6.814;2022-08-19T02:45:12;19.80;98.20
4374;DHT22;2201;51.100;6.814;2022-08-19T02:47:40;19.80;98.20
4374;DHT22;2201;51.100;6.814;2022-08-19T02:50:08;19.80;98.20
4374;DHT22;2201;51.100;6.814;2022-08-19T02:52:35;19.70;98.20
4374;DHT22;2201;51.100;6.814;2022-08-19T02:55:03;19.70;98.20
4374;DHT22;2201;51.100;6.814;2022-08-19T02:57:31;19.70;98.20
4374;DHT22;2201;51.100;6.814;2022-08-19T03:00:00;19.70;98.20
4374;DHT22;2201;51.100;6.814;2022-08-19T03:02:28;19.70;98.20
4374;DHT22;2201;51.100;6.814;2022-08-19T03:04:56;19.60;98.20
4374;DHT22;2201;51.100;6.814;2022-08-19T03:07:23;19.60;98.20
4374;DHT22;2201;51.100;6.814;2022-08-19T03:09:50;19.60;98.20
4374;DHT22;2201;51.100;6.814;2022-08-19T03:12:17;19.60;98.20
4374;DHT22;2201;51.100;6.814;2022-08-19T03:14:44;19.60;98.20
4374;DHT22;2201;51.100;6.814;2022-08-19T03:17:13;19.50;98.20
4374;DHT22;2201;51.100;6.814;2022-08-19T03:19:41;19.50;98.20
4374;DHT22;2201;51.100;6.814;2022-08-19T03:22:08;19.50;98.20
4374;DHT22;2201;51.100;6.814;2022-08-19T03:24:36;19.50;98.20
4374;DHT22;2201;51.100;6.814;2022-08-19T03:27:03;19.50;98.20
4374;DHT22;2201;51.100;6.814;2022-08-19T03:29:31;19.50;98.20
4374;DHT22;2201;51.100;6.814;2022-08-19T03:31:59;19.50;98.20
4374;DHT22;2201;51.100;6.814;2022-08-19T03:34:30;19.50;98.20
4374;DHT22;2201;51.100;6.814;2022-08-19T03:37:03;19.50;98.20
4374;DHT22;2201;51.100;6.814;2022-08-19T03:39:30;19.40;98.20
4374;DHT22;2201;51.100;6.814;2022-08-19T03:41:57;19.40;98.20
4374;DHT22;2201;51.100;6.814;2022-08-19T03:44:29;19.40;98.20
4374;DHT22;2201;51.100;6.814;2022-08-19T03:46:58;19.40;98.20
4374;DHT22;2201;51.100;6.814;2022-08-19T03:49:30;19.40;98.20
4374;DHT22;2201;51.100;6.814;2022-08-19T03:51:58;19.40;98.20
4374;DHT22;2201;51.100;6.814;2022-08-19T03:54:27;19.40;98.20
4374;DHT22;2201;51.100;6.814;2022-08-19T03:56:55;19.40;98.20
4374;DHT22;2201;51.100;6.814;2022-08-19T03:59:25;19.40;98.20
4374;DHT22;2201;51.100;6.814;2022-08-19T04:01:53;19.40;98.20
4374;DHT22;2201;51.100;6.814;2022-08-19T04:04:21;19.40;98.20
4374;DHT22;2201;51.100;6.814;2022-08-19T04:06:51;19.30;98.20
4374;DHT22;2201;51.100;6.814;2022-08-19T04:09:19;19.30;98.20
4374;DHT22;2201;51.100;6.814;2022-08-19T04:11:49;19.30;98.20
4374;DHT22;2201;51.100;6.814;2022-08-19T04:14:21;19.30;98.20
4374;DHT22;2201;51.100;6.814;2022-08-19T04:16:50;19.40;98.20
4374;DHT22;2201;51.100;6.814;2022-08-19T04:19:18;19.40;98.20
4374;DHT22;2201;51.100;6.814;2022-08-19T04:21:54;19.40;98.20
4374;DHT22;2201;51.100;6.814;2022-08-19T04:24:23;19.40;98.20
4374;DHT22;2201;51.100;6.814;2022-08-19T04:26:58;19.40;98.20
4374;DHT22;2201;51.100;6.814;2022-08-19T04:29:25;19.40;98.20
4374;DHT22;2201;51.100;6.814;2022-08-19T04:31:54;19.40;98.20
4374;DHT22;2201;51.100;6.814;2022-08-19T04:34:23;19.30;98.20
4374;DHT22;2201;51.100;6.814;2022-08-19T04:36:57;19.30;98.20
4374;DHT22;2201;51.100;6.814;2022-08-19T04:39:27;19.30;98.20
4374;DHT22;2201;51.100;6.814;2022-08-19T04:42:16;19.30;98.20
4374;DHT22;2201;51.100;6.814;2022-08-19T04:45:07;19.30;98.20
4374;DHT22;2201;51.100;6.814;2022-08-19T04:47:42;19.30;98.20
4374;DHT22;2201;51.100;6.814;2022-08-19T04:50:10;19.30;98.20
4374;DHT22;2201;51.100;6.814;2022-08-19T04:52:41;19.30;98.20
4374;DHT22;2201;51.100;6.814;2022-08-19T04:55:11;19.30;98.20
4374;DHT22;2201;51.100;6.814;2022-08-19T04:57:39;19.30;98.20
4374;DHT22;2201;51.100;6.814;2022-08-19T05:00:08;19.30;98.20
4374;DHT22;2201;51.100;6.814;2022-08-19T05:02:39;19.30;98.20
4374;DHT22;2201;51.100;6.814;2022-08-19T05:05:13;19.30;98.20
4374;DHT22;2201;51.100;6.814;2022-08-19T05:07:50;19.30;98.20
4374;DHT22;2201;51.100;6.814;2022-08-19T05:10:18;19.40;98.20
4374;DHT22;2201;51.100;6.814;2022-08-19T05:12:46;19.40;98.20
4374;DHT22;2201;51.100;6.814;2022-08-19T05:15:26;19.40;98.20
4374;DHT22;2201;51.100;6.814;2022-08-19T05:17:57;19.50;98.20
4374;DHT22;2201;51.100;6.814;2022-08-19T05:20:43;19.50;98.20
4374;DHT22;2201;51.100;6.814;2022-08-19T05:23:50;19.60;98.20
4374;DHT22;2201;51.100;6.814;2022-08-19T05:26:46;19.60;98.20
4374;DHT22;2201;51.100;6.814;2022-08-19T05:29:18;19.60;98.20
4374;DHT22;2201;51.100;6.814;2022-08-19T05:31:49;19.70;98.20
4374;DHT22;2201;51.100;6.814;2022-08-19T05:34:17;19.70;98.20
4374;DHT22;2201;51.100;6.814;2022-08-19T05:36:48;19.70;98.20
4374;DHT22;2201;51.100;6.814;2022-08-19T05:39:25;19.80;98.20
4374;DHT22;2201;51.100;6.814;2022-08-19T05:41:56;19.90;98.20
4374;DHT22;2201;51.100;6.814;2022-08-19T05:44:32;20.00;98.20
4374;DHT22;2201;51.100;6.814;2022-08-19T05:47:06;20.00;98.20
4374;DHT22;2201;51.100;6.814;2022-08-19T05:49:36;20.00;98.20
4374;DHT22;2201;51.100;6.814;2022-08-19T05:52:05;20.10;98.20
4374;DHT22;2201;51.100;6.814;2022-08-19T05:54:34;20.20;98.20
4374;DHT22;2201;51.100;6.814;2022-08-19T05:57:06;20.30;98.20
4374;DHT22;2201;51.100;6.814;2022-08-19T05:59:34;20.40;98.20
4374;DHT22;2201;51.100;6.814;2022-08-19T06:02:03;20.50;98.20
4374;DHT22;2201;51.100;6.814;2022-08-19T06:04:31;20.60;98.20
4374;DHT22;2201;51.100;6.814;2022-08-19T06:07:10;20.70;98.20
4374;DHT22;2201;51.100;6.814;2022-08-19T06:09:39;20.80;98.20
4374;DHT22;2201;51.100;6.814;2022-08-19T06:12:09;20.90;98.20
4374;DHT22;2201;51.100;6.814;2022-08-19T06:14:41;21.10;98.20
4374;DHT22;2201;51.100;6.814;2022-08-19T06:17:19;21.10;98.20
4374;DHT22;2201;51.100;6.814;2022-08-19T06:19:46;21.10;98.20
4374;DHT22;2201;51.100;6.814;2022-08-19T06:22:15;21.10;98.20
4374;DHT22;2201;51.100;6.814;2022-08-19T06:24:48;21.20;98.20
4374;DHT22;2201;51.100;6.814;2022-08-19T06:27:37;21.10;98.20
4374;DHT22;2201;51.100;6.814;2022-08-19T06:30:06;21.10;98.20
4374;DHT22;2201;51.100;6.814;2022-08-19T06:32:34;21.10;98.20
4374;DHT22;2201;51.100;6.814;2022-08-19T06:35:02;21.10;98.20
4374;DHT22;2201;51.100;6.814;2022-08-19T06:37:32;21.20;98.20
4374;DHT22;2201;51.100;6.814;2022-08-19T06:40:06;21.20;98.20
4374;DHT22;2201;51.100;6.814;2022-08-19T06:42:55;21.30;98.20
4374;DHT22;2201;51.100;6.814;2022-08-19T06:45:25;21.30;98.20
4374;DHT22;2201;51.100;6.814;2022-08-19T06:48:05;21.40;98.20
4374;DHT22;2201;51.100;6.814;2022-08-19T06:50:33;21.40;98.20
4374;DHT22;2201;51.100;6.814;2022-08-19T06:53:00;21.40;98.20
4374;DHT22;2201;51.100;6.814;2022-08-19T06:55:30;21.40;98.20
4374;DHT22;2201;51.100;6.814;2022-08-19T06:58:00;21.30;98.20
4374;DHT22;2201;51.100;6.814;2022-08-19T07:00:29;21.30;98.20
4374;DHT22;2201;51.100;6.814;2022-08-19T07:02:58;21.20;98.20
4374;DHT22;2201;51.100;6.814;2022-08-19T07:05:28;21.20;98.20
4374;DHT22;2201;51.100;6.814;2022-08-19T07:07:56;21.30;98.20
4374;DHT22;2201;51.100;6.814;2022-08-19T07:10:23;21.30;98.20
4374;DHT22;2201;51.100;6.814;2022-08-19T07:12:52;21.30;98.20
4374;DHT22;2201;51.100;6.814;2022-08-19T07:15:20;21.30;98.20
4374;DHT22;2201;51.100;6.814;2022-08-19T07:17:47;21.30;98.20
4374;DHT22;2201;51.100;6.814;2022-08-19T07:20:14;21.30;98.20
4374;DHT22;2201;51.100;6.814;2022-08-19T07:23:01;21.40;98.20
4374;DHT22;2201;51.100;6.814;2022-08-19T07:25:37;21.30;98.20
4374;DHT22;2201;51.100;6.814;2022-08-19T07:28:06;21.30;98.20
4374;DHT22;2201;51.100;6.814;2022-08-19T07:30:37;21.30;98.20
4374;DHT22;2201;51.100;6.814;2022-08-19T07:33:06;21.30;98.20
4374;DHT22;2201;51.100;6.814;2022-08-19T07:35:34;21.40;98.20
4374;DHT22;2201;51.100;6.814;2022-08-19T07:38:01;21.40;98.20
4374;DHT22;2201;51.100;6.814;2022-08-19T07:40:30;21.50;98.20
4374;DHT22;2201;51.100;6.814;2022-08-19T07:42:58;21.60;98.20
4374;DHT22;2201;51.100;6.814;2022-08-19T07:45:29;21.70;98.20
4374;DHT22;2201;51.100;6.814;2022-08-19T07:47:57;21.80;98.20
4374;DHT22;2201;51.100;6.814;2022-08-19T07:50:28;21.90;98.20
4374;DHT22;2201;51.100;6.814;2022-08-19T07:52:55;21.90;98.20
4374;DHT22;2201;51.100;6.814;2022-08-19T07:55:24;22.00;98.20
4374;DHT22;2201;51.100;6.814;2022-08-19T07:57:52;22.10;98.20
4374;DHT22;2201;51.100;6.814;2022-08-19T08:00:20;22.20;98.20
4374;DHT22;2201;51.100;6.814;2022-08-19T08:02:53;22.30;98.20
4374;DHT22;2201;51.100;6.814;2022-08-19T08:05:22;22.40;98.20
4374;DHT22;2201;51.100;6.814;2022-08-19T08:08:06;22.50;98.20
4374;DHT22;2201;51.100;6.814;2022-08-19T08:11:03;22.60;98.20
4374;DHT22;2201;51.100;6.814;2022-08-19T08:13:31;22.80;98.20
4374;DHT22;2201;51.100;6.814;2022-08-19T08:16:00;22.90;98.20
4374;DHT22;2201;51.100;6.814;2022-08-19T08:18:34;23.10;98.20
4374;DHT22;2201;51.100;6.814;2022-08-19T08:21:11;23.40;98.20
4374;DHT22;2201;51.100;6.814;2022-08-19T08:23:41;23.70;98.20
4374;DHT22;2201;51.100;6.814;2022-08-19T08:26:18;24.00;98.20
4374;DHT22;2201;51.100;6.814;2022-08-19T08:28:55;24.30;98.20
4374;DHT22;2201;51.100;6.814;2022-08-19T08:31:24;24.60;98.20
4374;DHT22;2201;51.100;6.814;2022-08-19T08:33:53;25.00;97.20
4374;DHT22;2201;51.100;6.814;2022-08-19T08:36:21;25.30;96.30
4374;DHT22;2201;51.100;6.814;2022-08-19T08:38:51;25.50;95.40
4374;DHT22;2201;51.100;6.814;2022-08-19T08:41:32;25.70;93.90
4374;DHT22;2201;51.100;6.814;2022-08-19T08:44:01;25.80;93.80
4374;DHT22;2201;51.100;6.814;2022-08-19T08:46:35;25.80;93.00
4374;DHT22;2201;51.100;6.814;2022-08-19T08:49:14;25.70;92.40
4374;DHT22;2201;51.100;6.814;2022-08-19T08:51:46;25.60;91.50
4374;DHT22;2201;51.100;6.814;2022-08-19T08:54:19;25.50;91.60
4374;DHT22;2201;51.100;6.814;2022-08-19T08:56:49;25.50;91.50
4374;DHT22;2201;51.100;6.814;2022-08-19T08:59:21;25.40;91.50
4374;DHT22;2201;51.100;6.814;2022-08-19T09:01:51;25.40;92.20
4374;DHT22;2201;51.100;6.814;2022-08-19T09:04:20;25.40;91.80
4374;DHT22;2201;51.100;6.814;2022-08-19T09:06:53;25.40;92.40
4374;DHT22;2201;51.100;6.814;2022-08-19T09:09:26;25.40;92.30
4374;DHT22;2201;51.100;6.814;2022-08-19T09:12:04;25.40;91.80
4374;DHT22;2201;51.100;6.814;2022-08-19T09:14:40;25.50;91.70
4374;DHT22;2201;51.100;6.814;2022-08-19T09:17:13;25.60;91.80
4374;DHT22;2201;51.100;6.814;2022-08-19T09:19:50;25.60;91.30
4374;DHT22;2201;51.100;6.814;2022-08-19T09:22:19;25.60;90.40
4374;DHT22;2201;51.100;6.814;2022-08-19T09:24:48;25.60;89.90
4374;DHT22;2201;51.100;6.814;2022-08-19T09:27:16;25.60;89.60
4374;DHT22;2201;51.100;6.814;2022-08-19T09:29:43;25.60;89.50
4374;DHT22;2201;51.100;6.814;2022-08-19T09:32:11;25.70;89.20
4374;DHT22;2201;51.100;6.814;2022-08-19T09:34:38;25.80;90.10
4374;DHT22;2201;51.100;6.814;2022-08-19T09:37:07;26.00;88.40
4374;DHT22;2201;51.100;6.814;2022-08-19T09:39:35;26.20;88.70
4374;DHT22;2201;51.100;6.814;2022-08-19T09:42:02;26.50;88.20
4374;DHT22;2201;51.100;6.814;2022-08-19T09:44:31;26.70;87.40
4374;DHT22;2201;51.100;6.814;2022-08-19T09:47:11;26.90;86.20
4374;DHT22;2201;51.100;6.814;2022-08-19T09:49:39;27.10;85.50
4374;DHT22;2201;51.100;6.814;2022-08-19T09:52:10;27.40;85.30
4374;DHT22;2201;51.100;6.814;2022-08-19T09:54:39;27.70;83.50
4374;DHT22;2201;51.100;6.814;2022-08-19T09:57:07;28.00;81.80
4374;DHT22;2201;51.100;6.814;2022-08-19T09:59:36;28.30;81.00
4374;DHT22;2201;51.100;6.814;2022-08-19T10:02:06;28.60;80.80
4374;DHT22;2201;51.100;6.814;2022-08-19T10:04:35;28.90;80.30
4374;DHT22;2201;51.100;6.814;2022-08-19T10:07:25;29.10;79.20
4374;DHT22;2201;51.100;6.814;2022-08-19T10:09:54;29.20;78.70
4374;DHT22;2201;51.100;6.814;2022-08-19T10:12:27;29.40;76.90
4374;DHT22;2201;51.100;6.814;2022-08-19T10:14:59;29.50;76.30
4374;DHT22;2201;51.100;6.814;2022-08-19T10:17:28;29.60;74.50
4374;DHT22;2201;51.100;6.814;2022-08-19T10:20:01;29.60;76.20
4374;DHT22;2201;51.100;6.814;2022-08-19T10:25:46;29.50;76.10
4374;DHT22;2201;51.100;6.814;2022-08-19T10:28:15;29.40;77.20
4374;DHT22;2201;51.100;6.814;2022-08-19T10:30:42;29.40;77.20
4374;DHT22;2201;51.100;6.814;2022-08-19T10:33:09;29.50;77.30
4374;DHT22;2201;51.100;6.814;2022-08-19T10:35:37;29.50;76.90
4374;DHT22;2201;51.100;6.814;2022-08-19T10:38:07;29.50;76.60
4374;DHT22;2201;51.100;6.814;2022-08-19T10:40:34;29.70;76.20
4374;DHT22;2201;51.100;6.814;2022-08-19T10:43:02;29.70;75.60
4374;DHT22;2201;51.100;6.814;2022-08-19T10:45:29;29.90;76.10
4374;DHT22;2201;51.100;6.814;2022-08-19T10:47:56;30.00;76.00
4374;DHT22;2201;51.100;6.814;2022-08-19T10:50:24;30.10;75.00
4374;DHT22;2201;51.100;6.814;2022-08-19T10:53:10;30.20;75.70
4374;DHT22;2201;51.100;6.814;2022-08-19T10:55:38;30.40;75.00
4374;DHT22;2201;51.100;6.814;2022-08-19T10:58:23;30.40;75.40
4374;DHT22;2201;51.100;6.814;2022-08-19T11:00:52;30.70;73.50
4374;DHT22;2201;51.100;6.814;2022-08-19T11:03:21;30.80;73.70
4374;DHT22;2201;51.100;6.814;2022-08-19T11:05:58;30.80;73.20
4374;DHT22;2201;51.100;6.814;2022-08-19T11:08:27;30.80;73.50
4374;DHT22;2201;51.100;6.814;2022-08-19T11:10:59;30.80;72.40
4374;DHT22;2201;51.100;6.814;2022-08-19T11:13:29;30.50;71.50
4374;DHT22;2201;51.100;6.814;2022-08-19T11:15:58;30.30;73.30
4374;DHT22;2201;51.100;6.814;2022-08-19T11:18:25;30.30;73.90
4374;DHT22;2201;51.100;6.814;2022-08-19T11:20:53;30.20;74.10
4374;DHT22;2201;51.100;6.814;2022-08-19T11:23:23;30.10;73.90
4374;DHT22;2201;51.100;6.814;2022-08-19T11:25:52;30.20;74.70
4374;DHT22;2201;51.100;6.814;2022-08-19T11:28:22;30.30;72.90
4374;DHT22;2201;51.100;6.814;2022-08-19T11:30:50;30.50;72.00
4374;DHT22;2201;51.100;6.814;2022-08-19T11:33:18;30.70;72.50
4374;DHT22;2201;51.100;6.814;2022-08-19T11:35:46;30.90;71.70
4374;DHT22;2201;51.100;6.814;2022-08-19T11:38:15;31.00;70.90
4374;DHT22;2201;51.100;6.814;2022-08-19T11:40:42;31.20;70.70
4374;DHT22;2201;51.100;6.814;2022-08-19T11:43:11;31.30;70.30
4374;DHT22;2201;51.100;6.814;2022-08-19T11:45:42;31.30;69.90
4374;DHT22;2201;51.100;6.814;2022-08-19T11:48:09;31.50;70.10
4374;DHT22;2201;51.100;6.814;2022-08-19T11:50:36;31.60;70.10
4374;DHT22;2201;51.100;6.814;2022-08-19T11:53:07;31.70;68.40
4374;DHT22;2201;51.100;6.814;2022-08-19T11:55:37;31.90;69.00
4374;DHT22;2201;51.100;6.814;2022-08-19T11:58:06;32.00;69.30
4374;DHT22;2201;51.100;6.814;2022-08-19T12:00:35;32.10;67.90
4374;DHT22;2201;51.100;6.814;2022-08-19T12:03:21;32.30;68.10
4374;DHT22;2201;51.100;6.814;2022-08-19T12:06:54;32.60;66.40
4374;DHT22;2201;51.100;6.814;2022-08-19T12:09:24;32.90;66.30
4374;DHT22;2201;51.100;6.814;2022-08-19T12:11:51;33.00;66.50
4374;DHT22;2201;51.100;6.814;2022-08-19T12:14:19;32.80;66.40
4374;DHT22;2201;51.100;6.814;2022-08-19T12:16:48;32.70;66.40
4374;DHT22;2201;51.100;6.814;2022-08-19T12:19:15;32.60;66.10
4374;DHT22;2201;51.100;6.814;2022-08-19T12:21:43;32.40;66.10
4374;DHT22;2201;51.100;6.814;2022-08-19T12:24:10;32.30;66.70
4374;DHT22;2201;51.100;6.814;2022-08-19T12:26:49;31.90;67.30
4374;DHT22;2201;51.100;6.814;2022-08-19T12:29:17;31.50;66.70
4374;DHT22;2201;51.100;6.814;2022-08-19T12:31:44;31.10;68.00
4374;DHT22;2201;51.100;6.814;2022-08-19T12:34:13;31.00;69.40
4374;DHT22;2201;51.100;6.814;2022-08-19T12:36:41;31.10;67.40
4374;DHT22;2201;51.100;6.814;2022-08-19T12:39:08;31.40;68.30
4374;DHT22;2201;51.100;6.814;2022-08-19T12:41:35;31.80;67.70
4374;DHT22;2201;51.100;6.814;2022-08-19T12:44:04;32.10;67.30
4374;DHT22;2201;51.100;6.814;2022-08-19T12:46:31;32.40;66.20
4374;DHT22;2201;51.100;6.814;2022-08-19T12:48:58;32.70;64.90
4374;DHT22;2201;51.100;6.814;2022-08-19T12:51:27;32.80;66.50
4374;DHT22;2201;51.100;6.814;2022-08-19T12:53:59;33.00;64.60
4374;DHT22;2201;51.100;6.814;2022-08-19T12:56:30;33.00;63.80
4374;DHT22;2201;51.100;6.814;2022-08-19T12:59:01;33.10;62.90
4374;DHT22;2201;51.100;6.814;2022-08-19T13:01:28;33.20;63.30
4374;DHT22;2201;51.100;6.814;2022-08-19T13:03:59;33.20;63.10
4374;DHT22;2201;51.100;6.814;2022-08-19T13:06:27;33.20;62.20
4374;DHT22;2201;51.100;6.814;2022-08-19T13:08:55;33.20;63.00
4374;DHT22;2201;51.100;6.814;2022-08-19T13:11:26;33.40;63.40
4374;DHT22;2201;51.100;6.814;2022-08-19T13:13:58;33.50;63.20
4374;DHT22;2201;51.100;6.814;2022-08-19T13:16:39;33.70;61.70
4374;DHT22;2201;51.100;6.814;2022-08-19T13:19:45;33.70;60.80
4374;DHT22;2201;51.100;6.814;2022-08-19T13:26:13;33.60;61.50
4374;DHT22;2201;51.100;6.814;2022-08-19T13:32:15;33.70;60.70
4374;DHT22;2201;51.100;6.814;2022-08-19T13:35:27;33.50;59.80
4374;DHT22;2201;51.100;6.814;2022-08-19T13:39:37;33.40;60.30
4374;DHT22;2201;51.100;6.814;2022-08-19T13:42:22;33.40;59.70
4374;DHT22;2201;51.100;6.814;2022-08-19T13:45:09;33.60;60.60
4374;DHT22;2201;51.100;6.814;2022-08-19T13:51:18;33.80;61.80
4374;DHT22;2201;51.100;6.814;2022-08-19T13:54:23;33.60;60.80
4374;DHT22;2201;51.100;6.814;2022-08-19T14:14:23;32.40;61.20
4374;DHT22;2201;51.100;6.814;2022-08-19T14:41:24;33.20;60.00
4374;DHT22;2201;51.100;6.814;2022-08-19T14:54:15;33.30;59.90
4374;DHT22;2201;51.100;6.814;2022-08-19T15:22:51;32.20;60.90
4374;DHT22;2201;51.100;6.814;2022-08-19T15:26:17;32.10;60.00
4374;DHT22;2201;51.100;6.814;2022-08-19T15:54:34;29.70;67.60
4374;DHT22;2201;51.100;6.814;2022-08-19T15:59:01;29.50;68.00
4374;DHT22;2201;51.100;6.814;2022-08-19T16:00:54;29.40;68.60
4374;DHT22;2201;51.100;6.814;2022-08-19T16:03:41;29.20;69.30
4374;DHT22;2201;51.100;6.814;2022-08-19T16:13:34;28.70;71.90
4374;DHT22;2201;51.100;6.814;2022-08-19T16:16:51;28.50;72.60
4374;DHT22;2201;51.100;6.814;2022-08-19T17:04:17;27.40;78.60
4374;DHT22;2201;51.100;6.814;2022-08-19T17:07:29;27.30;79.40
4374;DHT22;2201;51.100;6.814;2022-08-19T17:13:38;27.10;79.50
4374;DHT22;2201;51.100;6.814;2022-08-19T17:39:13;26.80;82.10
4374;DHT22;2201;51.100;6.814;2022-08-19T17:42:00;26.80;81.90
4374;DHT22;2201;51.100;6.814;2022-08-19T17:44:53;26.80;81.60
4374;DHT22;2201;51.100;6.814;2022-08-19T17:58:29;26.70;82.20
4374;DHT22;2201;51.100;6.814;2022-08-19T18:01:06;26.70;82.40
4374;DHT22;2201;51.100;6.814;2022-08-19T18:04:20;26.70;82.00
4374;DHT22;2201;51.100;6.814;2022-08-19T18:12:20;26.50;82.40
4374;DHT22;2201;51.100;6.814;2022-08-19T18:28:28;26.20;83.80
4374;DHT22;2201;51.100;6.814;2022-08-19T18:31:08;26.10;84.10
4374;DHT22;2201;51.100;6.814;2022-08-19T18:34:25;26.00;84.30
4374;DHT22;2201;51.100;6.814;2022-08-19T18:37:23;26.00;83.90
4374;DHT22;2201;51.100;6.814;2022-08-19T18:40:27;25.90;84.20
4374;DHT22;2201;51.100;6.814;2022-08-19T18:44:37;25.90;84.50
4374;DHT22;2201;51.100;6.814;2022-08-19T18:50:03;25.70;85.30
4374;DHT22;2201;51.100;6.814;2022-08-19T19:03:25;25.30;87.60
4374;DHT22;2201;51.100;6.814;2022-08-19T19:06:08;25.20;88.40
4374;DHT22;2201;51.100;6.814;2022-08-19T19:08:45;25.00;88.90
4374;DHT22;2201;51.100;6.814;2022-08-19T19:11:40;24.90;89.50
4374;DHT22;2201;51.100;6.814;2022-08-19T19:14:27;24.80;89.70
4374;DHT22;2201;51.100;6.814;2022-08-19T19:17:16;24.80;88.70
4374;DHT22;2201;51.100;6.814;2022-08-19T19:19:55;24.70;89.90
4374;DHT22;2201;51.100;6.814;2022-08-19T19:22:24;24.70;89.10
4374;DHT22;2201;51.100;6.814;2022-08-19T19:25:10;24.60;89.60
4374;DHT22;2201;51.100;6.814;2022-08-19T19:27:51;24.60;89.70
4374;DHT22;2201;51.100;6.814;2022-08-19T19:30:55;24.50;89.90
4374;DHT22;2201;51.100;6.814;2022-08-19T19:33:45;24.50;89.70
4374;DHT22;2201;51.100;6.814;2022-08-19T19:36:29;24.50;89.70
4374;DHT22;2201;51.100;6.814;2022-08-19T19:39:13;24.50;90.10
4374;DHT22;2201;51.100;6.814;2022-08-19T19:42:00;24.40;90.00
4374;DHT22;2201;51.100;6.814;2022-08-19T19:45:11;24.40;90.30
4374;DHT22;2201;51.100;6.814;2022-08-19T19:48:05;24.40;90.00
4374;DHT22;2201;51.100;6.814;2022-08-19T19:51:12;24.30;90.60
4374;DHT22;2201;51.100;6.814;2022-08-19T19:57:17;24.20;90.90
4374;DHT22;2201;51.100;6.814;2022-08-19T19:59:56;24.20;90.20
4374;DHT22;2201;51.100;6.814;2022-08-19T20:02:26;24.10;90.30
4374;DHT22;2201;51.100;6.814;2022-08-19T20:05:04;24.10;91.10
4374;DHT22;2201;51.100;6.814;2022-08-19T20:07:35;24.10;91.80
4374;DHT22;2201;51.100;6.814;2022-08-19T20:10:24;24.00;92.00
4374;DHT22;2201;51.100;6.814;2022-08-19T20:15:56;23.90;92.30
4374;DHT22;2201;51.100;6.814;2022-08-19T20:18:26;23.80;92.90
4374;DHT22;2201;51.100;6.814;2022-08-19T20:21:08;23.80;92.40
4374;DHT22;2201;51.100;6.814;2022-08-19T20:23:55;23.70;93.30
4374;DHT22;2201;51.100;6.814;2022-08-19T20:29:47;23.60;95.30
4374;DHT22;2201;51.100;6.814;2022-08-19T20:32:18;23.50;95.30
4374;DHT22;2201;51.100;6.814;2022-08-19T20:35:22;23.50;95.60
4374;DHT22;2201;51.100;6.814;2022-08-19T20:38:31;23.50;96.40
4374;DHT22;2201;51.100;6.814;2022-08-19T20:41:15;23.50;96.90
4374;DHT22;2201;51.100;6.814;2022-08-19T20:44:05;23.50;97.60
4374;DHT22;2201;51.100;6.814;2022-08-19T20:46:46;23.40;98.20
4374;DHT22;2201;51.100;6.814;2022-08-19T20:49:40;23.40;97.90
4374;DHT22;2201;51.100;6.814;2022-08-19T20:52:17;23.40;98.00
4374;DHT22;2201;51.100;6.814;2022-08-19T20:54:46;23.40;98.10
4374;DHT22;2201;51.100;6.814;2022-08-19T20:57:17;23.40;97.90